sensor_id;sensor_type;location;lat;lon;timestamp;P1;durP1;ratioP1;P2;durP2;ratioP2
36205;SDS011;22242;48.796;9.930;2024-01-30T00:02:11;2.60;;;1.50;;
36205;SDS011;22242;48.796;9.930;2024-01-30T00:04:38;2.80;;;1.05;;
36205;SDS011;22242;48.796;9.930;2024-01-30T00:07:05;3.42;;;1.20;;
36205;SDS011;22242;48.796;9.930;2024-01-30T00:09:34;3.67;;;1.27;;
36205;SDS011;22242;48.796;9.930;2024-01-30T00:12:00;2.20;;;1.50;;
36205;SDS011;22242;48.796;9.930;2024-01-30T00:14:27;1.70;;;1.25;;
36205;SDS011;22242;48.796;9.930;2024-01-30T00:16:54;1.90;;;1.35;;
36205;SDS011;22242;48.796;9.930;2024-01-30T00:19:21;1.73;;;1.05;;
36205;SDS011;22242;48.796;9.930;2024-01-30T00:21:48;0.93;;;0.77;;
36205;SDS011;22242;48.796;9.930;2024-01-30T00:24:14;1.10;;;0.88;;
36205;SDS011;22242;48.796;9.930;2024-01-30T00:26:43;2.55;;;1.48;;
36205;SDS011;22242;48.796;9.930;2024-01-30T00:29:09;1.58;;;1.05;;
36205;SDS011;22242;48.796;9.930;2024-01-30T00:31:36;1.45;;;1.23;;
36205;SDS011;22242;48.796;9.930;2024-01-30T00:34:03;1.55;;;1.30;;
36205;SDS011;22242;48.796;9.930;2024-01-30T00:36:30;3.40;;;2.13;;
36205;SDS011;22242;48.796;9.930;2024-01-30T00:38:56;5.13;;;2.63;;
36205;SDS011;22242;48.796;9.930;2024-01-30T00:41:23;4.13;;;2.45;;
36205;SDS011;22242;48.796;9.930;2024-01-30T00:43:51;3.70;;;2.53;;
36205;SDS011;22242;48.796;9.930;2024-01-30T00:46:18;4.38;;;2.75;;
36205;SDS011;22242;48.796;9.930;2024-01-30T00:48:45;5.25;;;3.03;;
36205;SDS011;22242;48.796;9.930;2024-01-30T00:51:12;4.95;;;3.28;;
36205;SDS011;22242;48.796;9.930;2024-01-30T00:53:39;3.28;;;2.65;;
36205;SDS011;22242;48.796;9.930;2024-01-30T00:56:06;4.32;;;2.38;;
36205;SDS011;22242;48.796;9.930;2024-01-30T00:58:34;3.22;;;1.80;;
36205;SDS011;22242;48.796;9.930;2024-01-30T01:01:02;2.42;;;2.00;;
36205;SDS011;22242;48.796;9.930;2024-01-30T01:03:29;3.38;;;1.90;;
36205;SDS011;22242;48.796;9.930;2024-01-30T01:05:56;2.58;;;1.83;;
36205;SDS011;22242;48.796;9.930;2024-01-30T01:08:22;4.30;;;1.90;;
36205;SDS011;22242;48.796;9.930;2024-01-30T01:10:50;3.28;;;1.90;;
36205;SDS011;22242;48.796;9.930;2024-01-30T01:13:17;3.55;;;2.13;;
36205;SDS011;22242;48.796;9.930;2024-01-30T01:15:43;2.90;;;1.38;;
36205;SDS011;22242;48.796;9.930;2024-01-30T01:18:12;4.20;;;2.40;;
36205;SDS011;22242;48.796;9.930;2024-01-30T01:20:39;6.30;;;3.00;;
36205;SDS011;22242;48.796;9.930;2024-01-30T01:23:05;4.32;;;3.17;;
36205;SDS011;22242;48.796;9.930;2024-01-30T01:25:32;5.75;;;3.22;;
36205;SDS011;22242;48.796;9.930;2024-01-30T01:27:59;8.90;;;5.20;;
36205;SDS011;22242;48.796;9.930;2024-01-30T01:30:26;10.68;;;4.63;;
36205;SDS011;22242;48.796;9.930;2024-01-30T01:32:54;8.45;;;4.90;;
36205;SDS011;22242;48.796;9.930;2024-01-30T01:35:23;11.38;;;4.20;;
36205;SDS011;22242;48.796;9.930;2024-01-30T01:37:50;6.93;;;4.45;;
36205;SDS011;22242;48.796;9.930;2024-01-30T01:40:20;5.68;;;3.90;;
36205;SDS011;22242;48.796;9.930;2024-01-30T01:42:49;6.68;;;4.07;;
36205;SDS011;22242;48.796;9.930;2024-01-30T01:45:16;7.15;;;3.90;;
36205;SDS011;22242;48.796;9.930;2024-01-30T01:47:43;6.70;;;3.90;;
36205;SDS011;22242;48.796;9.930;2024-01-30T01:50:12;9.30;;;4.50;;
36205;SDS011;22242;48.796;9.930;2024-01-30T01:52:40;8.48;;;4.10;;
36205;SDS011;22242;48.796;9.930;2024-01-30T01:55:07;9.18;;;4.30;;
36205;SDS011;22242;48.796;9.930;2024-01-30T01:57:37;7.85;;;4.65;;
36205;SDS011;22242;48.796;9.930;2024-01-30T02:00:04;7.70;;;4.13;;
36205;SDS011;22242;48.796;9.930;2024-01-30T02:02:34;7.28;;;4.07;;
36205;SDS011;22242;48.796;9.930;2024-01-30T02:05:02;5.55;;;3.88;;
36205;SDS011;22242;48.796;9.930;2024-01-30T02:07:30;8.75;;;4.78;;
36205;SDS011;22242;48.796;9.930;2024-01-30T02:09:58;7.30;;;4.57;;
36205;SDS011;22242;48.796;9.930;2024-01-30T02:12:25;7.30;;;4.63;;
36205;SDS011;22242;48.796;9.930;2024-01-30T02:14:52;5.90;;;3.90;;
36205;SDS011;22242;48.796;9.930;2024-01-30T02:17:20;11.75;;;5.30;;
36205;SDS011;22242;48.796;9.930;2024-01-30T02:19:48;4.07;;;3.50;;
36205;SDS011;22242;48.796;9.930;2024-01-30T02:22:16;5.10;;;3.58;;
36205;SDS011;22242;48.796;9.930;2024-01-30T02:24:43;5.15;;;3.40;;
36205;SDS011;22242;48.796;9.930;2024-01-30T02:27:10;5.30;;;3.40;;
36205;SDS011;22242;48.796;9.930;2024-01-30T02:29:36;4.38;;;3.28;;
36205;SDS011;22242;48.796;9.930;2024-01-30T02:32:04;6.78;;;3.60;;
36205;SDS011;22242;48.796;9.930;2024-01-30T02:34:32;6.20;;;3.67;;
36205;SDS011;22242;48.796;9.930;2024-01-30T02:36:59;5.45;;;3.33;;
36205;SDS011;22242;48.796;9.930;2024-01-30T02:39:27;5.05;;;3.38;;
36205;SDS011;22242;48.796;9.930;2024-01-30T02:41:54;6.47;;;3.42;;
36205;SDS011;22242;48.796;9.930;2024-01-30T02:44:22;6.05;;;3.33;;
36205;SDS011;22242;48.796;9.930;2024-01-30T02:46:49;2.50;;;1.90;;
36205;SDS011;22242;48.796;9.930;2024-01-30T02:49:15;4.43;;;1.95;;
36205;SDS011;22242;48.796;9.930;2024-01-30T02:51:42;2.90;;;2.03;;
36205;SDS011;22242;48.796;9.930;2024-01-30T02:54:09;3.85;;;2.30;;
36205;SDS011;22242;48.796;9.930;2024-01-30T02:56:37;2.85;;;1.52;;
36205;SDS011;22242;48.796;9.930;2024-01-30T02:59:04;3.13;;;1.70;;
36205;SDS011;22242;48.796;9.930;2024-01-30T03:01:31;2.42;;;1.70;;
36205;SDS011;22242;48.796;9.930;2024-01-30T03:03:58;3.20;;;1.77;;
36205;SDS011;22242;48.796;9.930;2024-01-30T03:06:25;3.10;;;1.52;;
36205;SDS011;22242;48.796;9.930;2024-01-30T03:08:51;2.15;;;1.70;;
36205;SDS011;22242;48.796;9.930;2024-01-30T03:11:18;2.55;;;1.95;;
36205;SDS011;22242;48.796;9.930;2024-01-30T03:13:46;2.97;;;1.95;;
36205;SDS011;22242;48.796;9.930;2024-01-30T03:16:13;2.47;;;1.75;;
36205;SDS011;22242;48.796;9.930;2024-01-30T03:18:40;4.25;;;2.00;;
36205;SDS011;22242;48.796;9.930;2024-01-30T03:21:07;3.22;;;1.75;;
36205;SDS011;22242;48.796;9.930;2024-01-30T03:23:33;3.40;;;1.55;;
36205;SDS011;22242;48.796;9.930;2024-01-30T03:26:00;5.72;;;1.80;;
36205;SDS011;22242;48.796;9.930;2024-01-30T03:28:29;4.05;;;1.73;;
36205;SDS011;22242;48.796;9.930;2024-01-30T03:30:57;5.43;;;2.17;;
36205;SDS011;22242;48.796;9.930;2024-01-30T03:33:24;2.65;;;1.98;;
36205;SDS011;22242;48.796;9.930;2024-01-30T03:35:52;4.80;;;2.20;;
36205;SDS011;22242;48.796;9.930;2024-01-30T03:38:19;4.35;;;1.88;;
36205;SDS011;22242;48.796;9.930;2024-01-30T03:40:45;3.15;;;1.85;;
36205;SDS011;22242;48.796;9.930;2024-01-30T03:43:12;3.15;;;2.08;;
36205;SDS011;22242;48.796;9.930;2024-01-30T03:45:39;3.50;;;2.00;;
36205;SDS011;22242;48.796;9.930;2024-01-30T03:48:07;6.82;;;2.13;;
36205;SDS011;22242;48.796;9.930;2024-01-30T03:50:34;2.67;;;1.70;;
36205;SDS011;22242;48.796;9.930;2024-01-30T03:53:01;3.10;;;1.80;;
36205;SDS011;22242;48.796;9.930;2024-01-30T03:55:28;5.65;;;1.80;;
36205;SDS011;22242;48.796;9.930;2024-01-30T03:57:54;6.28;;;2.78;;
36205;SDS011;22242;48.796;9.930;2024-01-30T04:00:21;2.90;;;2.08;;
36205;SDS011;22242;48.796;9.930;2024-01-30T04:02:48;5.95;;;2.97;;
36205;SDS011;22242;48.796;9.930;2024-01-30T04:05:17;6.55;;;3.33;;
36205;SDS011;22242;48.796;9.930;2024-01-30T04:07:44;7.20;;;3.58;;
36205;SDS011;22242;48.796;9.930;2024-01-30T04:10:11;6.40;;;3.22;;
36205;SDS011;22242;48.796;9.930;2024-01-30T04:12:38;5.47;;;3.22;;
36205;SDS011;22242;48.796;9.930;2024-01-30T04:15:05;6.32;;;3.08;;
36205;SDS011;22242;48.796;9.930;2024-01-30T04:17:32;6.30;;;3.17;;
36205;SDS011;22242;48.796;9.930;2024-01-30T04:19:59;4.80;;;3.15;;
36205;SDS011;22242;48.796;9.930;2024-01-30T04:22:27;6.63;;;2.85;;
36205;SDS011;22242;48.796;9.930;2024-01-30T04:24:54;8.73;;;3.13;;
36205;SDS011;22242;48.796;9.930;2024-01-30T04:27:21;6.63;;;3.08;;
36205;SDS011;22242;48.796;9.930;2024-01-30T04:29:48;4.03;;;2.90;;
36205;SDS011;22242;48.796;9.930;2024-01-30T04:32:15;4.43;;;2.60;;
36205;SDS011;22242;48.796;9.930;2024-01-30T04:34:42;4.35;;;2.20;;
36205;SDS011;22242;48.796;9.930;2024-01-30T04:37:07;4.13;;;2.75;;
36205;SDS011;22242;48.796;9.930;2024-01-30T04:39:36;2.97;;;1.80;;
36205;SDS011;22242;48.796;9.930;2024-01-30T04:42:03;3.50;;;2.40;;
36205;SDS011;22242;48.796;9.930;2024-01-30T04:44:30;3.00;;;1.83;;
36205;SDS011;22242;48.796;9.930;2024-01-30T04:46:57;2.28;;;1.70;;
36205;SDS011;22242;48.796;9.930;2024-01-30T04:49:26;3.35;;;2.00;;
36205;SDS011;22242;48.796;9.930;2024-01-30T04:51:54;2.38;;;1.60;;
36205;SDS011;22242;48.796;9.930;2024-01-30T04:54:21;4.80;;;2.30;;
36205;SDS011;22242;48.796;9.930;2024-01-30T04:56:49;4.25;;;2.20;;
36205;SDS011;22242;48.796;9.930;2024-01-30T04:59:15;2.95;;;2.08;;
36205;SDS011;22242;48.796;9.930;2024-01-30T05:01:42;5.72;;;2.53;;
36205;SDS011;22242;48.796;9.930;2024-01-30T05:04:09;4.88;;;2.42;;
36205;SDS011;22242;48.796;9.930;2024-01-30T05:06:36;4.78;;;2.17;;
36205;SDS011;22242;48.796;9.930;2024-01-30T05:09:03;4.50;;;2.30;;
36205;SDS011;22242;48.796;9.930;2024-01-30T05:11:30;2.72;;;1.73;;
36205;SDS011;22242;48.796;9.930;2024-01-30T05:13:58;2.90;;;1.98;;
36205;SDS011;22242;48.796;9.930;2024-01-30T05:16:25;11.65;;;6.00;;
36205;SDS011;22242;48.796;9.930;2024-01-30T05:18:52;8.90;;;5.05;;
36205;SDS011;22242;48.796;9.930;2024-01-30T05:21:19;7.25;;;4.45;;
36205;SDS011;22242;48.796;9.930;2024-01-30T05:23:46;11.65;;;9.27;;
36205;SDS011;22242;48.796;9.930;2024-01-30T05:26:12;8.80;;;6.85;;
36205;SDS011;22242;48.796;9.930;2024-01-30T05:28:39;5.32;;;4.50;;
36205;SDS011;22242;48.796;9.930;2024-01-30T05:31:07;5.30;;;2.33;;
36205;SDS011;22242;48.796;9.930;2024-01-30T05:33:34;7.30;;;4.13;;
36205;SDS011;22242;48.796;9.930;2024-01-30T05:36:01;3.55;;;2.25;;
36205;SDS011;22242;48.796;9.930;2024-01-30T05:38:28;3.15;;;2.67;;
36205;SDS011;22242;48.796;9.930;2024-01-30T05:40:55;4.05;;;3.38;;
36205;SDS011;22242;48.796;9.930;2024-01-30T05:43:23;4.13;;;2.63;;
36205;SDS011;22242;48.796;9.930;2024-01-30T05:45:50;3.85;;;2.47;;
36205;SDS011;22242;48.796;9.930;2024-01-30T05:48:19;5.57;;;2.90;;
36205;SDS011;22242;48.796;9.930;2024-01-30T05:50:46;6.70;;;2.70;;
36205;SDS011;22242;48.796;9.930;2024-01-30T05:53:12;6.65;;;2.40;;
36205;SDS011;22242;48.796;9.930;2024-01-30T05:55:39;3.53;;;2.63;;
36205;SDS011;22242;48.796;9.930;2024-01-30T05:58:06;4.43;;;2.17;;
36205;SDS011;22242;48.796;9.930;2024-01-30T06:00:33;9.70;;;2.40;;
36205;SDS011;22242;48.796;9.930;2024-01-30T06:03:00;3.65;;;1.88;;
36205;SDS011;22242;48.796;9.930;2024-01-30T06:05:28;3.10;;;1.70;;
36205;SDS011;22242;48.796;9.930;2024-01-30T06:07:55;3.60;;;1.67;;
36205;SDS011;22242;48.796;9.930;2024-01-30T06:10:21;6.35;;;2.05;;
36205;SDS011;22242;48.796;9.930;2024-01-30T06:12:48;2.75;;;1.70;;
36205;SDS011;22242;48.796;9.930;2024-01-30T06:15:15;5.53;;;2.35;;
36205;SDS011;22242;48.796;9.930;2024-01-30T06:17:42;4.85;;;2.17;;
36205;SDS011;22242;48.796;9.930;2024-01-30T06:20:09;3.10;;;2.47;;
36205;SDS011;22242;48.796;9.930;2024-01-30T06:22:37;3.95;;;2.30;;
36205;SDS011;22242;48.796;9.930;2024-01-30T06:25:04;5.85;;;2.10;;
36205;SDS011;22242;48.796;9.930;2024-01-30T06:27:31;3.20;;;1.95;;
36205;SDS011;22242;48.796;9.930;2024-01-30T06:29:58;3.58;;;1.90;;
36205;SDS011;22242;48.796;9.930;2024-01-30T06:32:25;3.45;;;2.63;;
36205;SDS011;22242;48.796;9.930;2024-01-30T06:34:52;4.05;;;2.97;;
36205;SDS011;22242;48.796;9.930;2024-01-30T06:37:19;4.28;;;2.60;;
36205;SDS011;22242;48.796;9.930;2024-01-30T06:39:47;10.40;;;3.60;;
36205;SDS011;22242;48.796;9.930;2024-01-30T06:42:14;6.93;;;3.80;;
36205;SDS011;22242;48.796;9.930;2024-01-30T06:44:41;10.55;;;4.90;;
36205;SDS011;22242;48.796;9.930;2024-01-30T06:47:08;9.32;;;4.05;;
36205;SDS011;22242;48.796;9.930;2024-01-30T06:49:34;8.57;;;4.10;;
36205;SDS011;22242;48.796;9.930;2024-01-30T06:52:03;8.60;;;3.67;;
36205;SDS011;22242;48.796;9.930;2024-01-30T06:54:30;6.10;;;2.83;;
36205;SDS011;22242;48.796;9.930;2024-01-30T06:56:59;10.32;;;2.95;;
36205;SDS011;22242;48.796;9.930;2024-01-30T06:59:26;9.50;;;3.67;;
36205;SDS011;22242;48.796;9.930;2024-01-30T07:01:52;11.18;;;4.75;;
36205;SDS011;22242;48.796;9.930;2024-01-30T07:04:19;10.82;;;3.65;;
36205;SDS011;22242;48.796;9.930;2024-01-30T07:06:46;11.88;;;4.32;;
36205;SDS011;22242;48.796;9.930;2024-01-30T07:09:13;10.40;;;3.92;;
36205;SDS011;22242;48.796;9.930;2024-01-30T07:11:40;11.10;;;4.45;;
36205;SDS011;22242;48.796;9.930;2024-01-30T07:14:08;12.00;;;5.18;;
36205;SDS011;22242;48.796;9.930;2024-01-30T07:16:35;16.42;;;5.60;;
36205;SDS011;22242;48.796;9.930;2024-01-30T07:19:02;16.77;;;6.45;;
36205;SDS011;22242;48.796;9.930;2024-01-30T07:21:29;15.07;;;5.68;;
36205;SDS011;22242;48.796;9.930;2024-01-30T07:23:56;12.80;;;4.90;;
36205;SDS011;22242;48.796;9.930;2024-01-30T07:26:23;14.55;;;5.97;;
36205;SDS011;22242;48.796;9.930;2024-01-30T07:28:50;10.68;;;5.13;;
36205;SDS011;22242;48.796;9.930;2024-01-30T07:31:18;12.05;;;6.13;;
36205;SDS011;22242;48.796;9.930;2024-01-30T07:33:48;44.47;;;18.10;;
36205;SDS011;22242;48.796;9.930;2024-01-30T07:36:15;20.75;;;7.50;;
36205;SDS011;22242;48.796;9.930;2024-01-30T07:38:41;19.02;;;7.07;;
36205;SDS011;22242;48.796;9.930;2024-01-30T07:41:10;18.92;;;6.57;;
36205;SDS011;22242;48.796;9.930;2024-01-30T07:43:37;24.65;;;8.48;;
36205;SDS011;22242;48.796;9.930;2024-01-30T07:46:05;25.92;;;8.77;;
36205;SDS011;22242;48.796;9.930;2024-01-30T07:48:34;19.63;;;7.10;;
36205;SDS011;22242;48.796;9.930;2024-01-30T07:51:01;17.60;;;6.22;;
36205;SDS011;22242;48.796;9.930;2024-01-30T07:53:29;25.85;;;11.80;;
36205;SDS011;22242;48.796;9.930;2024-01-30T07:55:56;36.92;;;14.27;;
36205;SDS011;22242;48.796;9.930;2024-01-30T07:58:23;25.70;;;10.18;;
36205;SDS011;22242;48.796;9.930;2024-01-30T08:00:52;164.05;;;50.38;;
36205;SDS011;22242;48.796;9.930;2024-01-30T08:03:19;200.40;;;64.32;;
36205;SDS011;22242;48.796;9.930;2024-01-30T08:05:47;155.68;;;48.45;;
36205;SDS011;22242;48.796;9.930;2024-01-30T08:08:14;45.50;;;17.38;;
36205;SDS011;22242;48.796;9.930;2024-01-30T08:10:41;82.90;;;29.52;;
36205;SDS011;22242;48.796;9.930;2024-01-30T08:13:07;41.55;;;16.08;;
36205;SDS011;22242;48.796;9.930;2024-01-30T08:15:34;44.92;;;18.77;;
36205;SDS011;22242;48.796;9.930;2024-01-30T08:18:01;37.67;;;15.55;;
36205;SDS011;22242;48.796;9.930;2024-01-30T08:20:28;40.47;;;16.42;;
36205;SDS011;22242;48.796;9.930;2024-01-30T08:22:56;26.38;;;9.77;;
36205;SDS011;22242;48.796;9.930;2024-01-30T08:25:23;52.05;;;19.00;;
36205;SDS011;22242;48.796;9.930;2024-01-30T08:27:50;47.47;;;18.80;;
36205;SDS011;22242;48.796;9.930;2024-01-30T08:30:17;43.53;;;18.55;;
36205;SDS011;22242;48.796;9.930;2024-01-30T08:32:45;40.13;;;17.63;;
36205;SDS011;22242;48.796;9.930;2024-01-30T08:35:12;43.22;;;17.25;;
36205;SDS011;22242;48.796;9.930;2024-01-30T08:37:41;35.65;;;16.48;;
36205;SDS011;22242;48.796;9.930;2024-01-30T08:40:09;37.53;;;16.75;;
36205;SDS011;22242;48.796;9.930;2024-01-30T08:42:36;38.00;;;17.23;;
36205;SDS011;22242;48.796;9.930;2024-01-30T08:45:04;34.92;;;17.73;;
36205;SDS011;22242;48.796;9.930;2024-01-30T08:47:31;30.48;;;16.92;;
36205;SDS011;22242;48.796;9.930;2024-01-30T08:49:59;30.98;;;16.58;;
36205;SDS011;22242;48.796;9.930;2024-01-30T08:52:25;22.88;;;13.27;;
36205;SDS011;22242;48.796;9.930;2024-01-30T08:54:52;27.20;;;14.15;;
36205;SDS011;22242;48.796;9.930;2024-01-30T08:57:20;18.33;;;11.05;;
36205;SDS011;22242;48.796;9.930;2024-01-30T08:59:47;24.63;;;13.00;;
36205;SDS011;22242;48.796;9.930;2024-01-30T09:02:14;46.53;;;24.92;;
36205;SDS011;22242;48.796;9.930;2024-01-30T09:04:43;77.90;;;39.67;;
36205;SDS011;22242;48.796;9.930;2024-01-30T09:07:10;171.60;;;61.50;;
36205;SDS011;22242;48.796;9.930;2024-01-30T09:09:38;71.28;;;34.05;;
36205;SDS011;22242;48.796;9.930;2024-01-30T09:12:06;32.40;;;18.08;;
36205;SDS011;22242;48.796;9.930;2024-01-30T09:14:36;16.15;;;11.70;;
36205;SDS011;22242;48.796;9.930;2024-01-30T09:17:03;21.08;;;13.05;;
36205;SDS011;22242;48.796;9.930;2024-01-30T09:19:30;12.55;;;8.30;;
36205;SDS011;22242;48.796;9.930;2024-01-30T09:21:57;14.00;;;9.57;;
36205;SDS011;22242;48.796;9.930;2024-01-30T09:24:25;10.45;;;6.50;;
36205;SDS011;22242;48.796;9.930;2024-01-30T09:26:52;13.70;;;9.70;;
36205;SDS011;22242;48.796;9.930;2024-01-30T09:29:19;9.32;;;6.32;;
36205;SDS011;22242;48.796;9.930;2024-01-30T09:31:47;10.85;;;7.03;;
36205;SDS011;22242;48.796;9.930;2024-01-30T09:34:14;6.68;;;5.10;;
36205;SDS011;22242;48.796;9.930;2024-01-30T09:36:41;5.20;;;4.30;;
36205;SDS011;22242;48.796;9.930;2024-01-30T09:39:08;5.75;;;4.22;;
36205;SDS011;22242;48.796;9.930;2024-01-30T09:41:35;4.63;;;3.30;;
36205;SDS011;22242;48.796;9.930;2024-01-30T09:44:08;4.65;;;3.28;;
36205;SDS011;22242;48.796;9.930;2024-01-30T09:46:35;5.80;;;3.22;;
36205;SDS011;22242;48.796;9.930;2024-01-30T09:49:03;4.05;;;3.53;;
36205;SDS011;22242;48.796;9.930;2024-01-30T09:51:32;5.97;;;3.47;;
36205;SDS011;22242;48.796;9.930;2024-01-30T09:53:59;6.93;;;4.07;;
36205;SDS011;22242;48.796;9.930;2024-01-30T09:56:26;6.60;;;4.75;;
36205;SDS011;22242;48.796;9.930;2024-01-30T09:58:53;5.93;;;3.90;;
36205;SDS011;22242;48.796;9.930;2024-01-30T10:01:20;4.95;;;4.10;;
36205;SDS011;22242;48.796;9.930;2024-01-30T10:03:47;4.18;;;3.75;;
36205;SDS011;22242;48.796;9.930;2024-01-30T10:06:18;5.53;;;3.78;;
36205;SDS011;22242;48.796;9.930;2024-01-30T10:08:46;6.53;;;3.50;;
36205;SDS011;22242;48.796;9.930;2024-01-30T10:11:12;5.70;;;3.90;;
36205;SDS011;22242;48.796;9.930;2024-01-30T10:13:39;5.20;;;3.63;;
36205;SDS011;22242;48.796;9.930;2024-01-30T10:16:06;4.35;;;3.00;;
36205;SDS011;22242;48.796;9.930;2024-01-30T10:18:33;6.05;;;3.80;;
36205;SDS011;22242;48.796;9.930;2024-01-30T10:21:00;7.25;;;3.95;;
36205;SDS011;22242;48.796;9.930;2024-01-30T10:23:30;5.22;;;3.08;;
36205;SDS011;22242;48.796;9.930;2024-01-30T10:25:57;3.28;;;2.85;;
36205;SDS011;22242;48.796;9.930;2024-01-30T10:28:26;4.95;;;3.28;;
36205;SDS011;22242;48.796;9.930;2024-01-30T10:30:57;4.53;;;3.17;;
36205;SDS011;22242;48.796;9.930;2024-01-30T10:33:25;3.28;;;2.97;;
36205;SDS011;22242;48.796;9.930;2024-01-30T10:35:54;6.68;;;5.10;;
36205;SDS011;22242;48.796;9.930;2024-01-30T10:38:26;4.40;;;3.23;;
36205;SDS011;22242;48.796;9.930;2024-01-30T10:40:57;7.00;;;3.38;;
36205;SDS011;22242;48.796;9.930;2024-01-30T10:43:28;10.38;;;3.78;;
36205;SDS011;22242;48.796;9.930;2024-01-30T10:46:01;7.40;;;3.30;;
36205;SDS011;22242;48.796;9.930;2024-01-30T10:48:36;4.55;;;3.10;;
36205;SDS011;22242;48.796;9.930;2024-01-30T10:51:07;5.85;;;3.08;;
36205;SDS011;22242;48.796;9.930;2024-01-30T10:53:37;4.68;;;3.28;;
36205;SDS011;22242;48.796;9.930;2024-01-30T10:56:05;5.28;;;3.28;;
36205;SDS011;22242;48.796;9.930;2024-01-30T10:58:33;6.85;;;3.90;;
36205;SDS011;22242;48.796;9.930;2024-01-30T11:00:59;5.32;;;3.28;;
36205;SDS011;22242;48.796;9.930;2024-01-30T11:03:27;5.55;;;3.45;;
36205;SDS011;22242;48.796;9.930;2024-01-30T11:05:58;7.10;;;3.85;;
36205;SDS011;22242;48.796;9.930;2024-01-30T11:08:26;7.88;;;3.83;;
36205;SDS011;22242;48.796;9.930;2024-01-30T11:10:55;5.07;;;3.35;;
36205;SDS011;22242;48.796;9.930;2024-01-30T11:13:26;3.83;;;3.40;;
36205;SDS011;22242;48.796;9.930;2024-01-30T11:15:53;5.78;;;3.63;;
36205;SDS011;22242;48.796;9.930;2024-01-30T11:18:23;6.15;;;3.40;;
36205;SDS011;22242;48.796;9.930;2024-01-30T11:20:51;7.28;;;4.00;;
36205;SDS011;22242;48.796;9.930;2024-01-30T11:23:18;7.18;;;3.80;;
36205;SDS011;22242;48.796;9.930;2024-01-30T11:25:48;7.38;;;3.67;;
36205;SDS011;22242;48.796;9.930;2024-01-30T11:28:16;5.38;;;3.38;;
36205;SDS011;22242;48.796;9.930;2024-01-30T11:30:43;9.30;;;3.65;;
36205;SDS011;22242;48.796;9.930;2024-01-30T11:33:14;9.10;;;3.83;;
36205;SDS011;22242;48.796;9.930;2024-01-30T11:35:41;6.55;;;3.95;;
36205;SDS011;22242;48.796;9.930;2024-01-30T11:38:09;6.05;;;3.70;;
36205;SDS011;22242;48.796;9.930;2024-01-30T11:40:37;7.28;;;4.53;;
36205;SDS011;22242;48.796;9.930;2024-01-30T11:43:06;6.25;;;3.78;;
36205;SDS011;22242;48.796;9.930;2024-01-30T11:45:35;6.45;;;3.33;;
36205;SDS011;22242;48.796;9.930;2024-01-30T11:48:03;4.68;;;3.42;;
36205;SDS011;22242;48.796;9.930;2024-01-30T11:50:30;10.82;;;4.00;;
36205;SDS011;22242;48.796;9.930;2024-01-30T11:52:57;5.80;;;4.25;;
36205;SDS011;22242;48.796;9.930;2024-01-30T11:55:25;7.53;;;4.13;;
36205;SDS011;22242;48.796;9.930;2024-01-30T11:57:54;11.80;;;6.15;;
36205;SDS011;22242;48.796;9.930;2024-01-30T12:00:21;7.20;;;4.80;;
36205;SDS011;22242;48.796;9.930;2024-01-30T12:02:50;9.20;;;4.60;;
36205;SDS011;22242;48.796;9.930;2024-01-30T12:05:20;5.45;;;3.65;;
36205;SDS011;22242;48.796;9.930;2024-01-30T12:07:48;4.75;;;3.50;;
36205;SDS011;22242;48.796;9.930;2024-01-30T12:10:15;5.68;;;3.78;;
36205;SDS011;22242;48.796;9.930;2024-01-30T12:12:43;4.97;;;3.25;;
36205;SDS011;22242;48.796;9.930;2024-01-30T12:15:12;5.80;;;3.72;;
36205;SDS011;22242;48.796;9.930;2024-01-30T12:17:39;11.50;;;5.22;;
36205;SDS011;22242;48.796;9.930;2024-01-30T12:20:09;5.35;;;2.95;;
36205;SDS011;22242;48.796;9.930;2024-01-30T12:22:36;4.75;;;3.35;;
36205;SDS011;22242;48.796;9.930;2024-01-30T12:25:04;4.00;;;3.20;;
36205;SDS011;22242;48.796;9.930;2024-01-30T12:27:31;6.25;;;3.25;;
36205;SDS011;22242;48.796;9.930;2024-01-30T12:29:58;7.15;;;4.03;;
36205;SDS011;22242;48.796;9.930;2024-01-30T12:32:25;5.75;;;3.67;;
36205;SDS011;22242;48.796;9.930;2024-01-30T12:34:54;3.83;;;2.80;;
36205;SDS011;22242;48.796;9.930;2024-01-30T12:37:24;6.97;;;3.13;;
36205;SDS011;22242;48.796;9.930;2024-01-30T12:39:51;3.70;;;2.80;;
36205;SDS011;22242;48.796;9.930;2024-01-30T12:42:19;2.97;;;2.45;;
36205;SDS011;22242;48.796;9.930;2024-01-30T12:44:47;5.30;;;2.90;;
36205;SDS011;22242;48.796;9.930;2024-01-30T12:47:37;5.15;;;2.55;;
36205;SDS011;22242;48.796;9.930;2024-01-30T12:50:05;3.83;;;2.72;;
36205;SDS011;22242;48.796;9.930;2024-01-30T12:52:32;4.18;;;2.80;;
36205;SDS011;22242;48.796;9.930;2024-01-30T12:54:59;6.70;;;2.80;;
36205;SDS011;22242;48.796;9.930;2024-01-30T12:57:26;2.45;;;1.95;;
36205;SDS011;22242;48.796;9.930;2024-01-30T12:59:53;4.07;;;2.03;;
36205;SDS011;22242;48.796;9.930;2024-01-30T13:02:19;4.68;;;1.88;;
36205;SDS011;22242;48.796;9.930;2024-01-30T13:04:49;3.47;;;2.00;;
36205;SDS011;22242;48.796;9.930;2024-01-30T13:07:16;3.00;;;1.77;;
36205;SDS011;22242;48.796;9.930;2024-01-30T13:09:43;2.55;;;1.85;;
36205;SDS011;22242;48.796;9.930;2024-01-30T13:12:10;2.20;;;1.83;;
36205;SDS011;22242;48.796;9.930;2024-01-30T13:14:37;3.28;;;1.85;;
36205;SDS011;22242;48.796;9.930;2024-01-30T13:17:03;3.03;;;1.83;;
36205;SDS011;22242;48.796;9.930;2024-01-30T13:19:30;4.55;;;2.08;;
36205;SDS011;22242;48.796;9.930;2024-01-30T13:21:58;3.25;;;1.40;;
36205;SDS011;22242;48.796;9.930;2024-01-30T13:24:25;2.28;;;1.80;;
36205;SDS011;22242;48.796;9.930;2024-01-30T13:26:52;1.73;;;1.60;;
36205;SDS011;22242;48.796;9.930;2024-01-30T13:29:19;3.35;;;1.60;;
36205;SDS011;22242;48.796;9.930;2024-01-30T13:31:45;2.22;;;1.60;;
36205;SDS011;22242;48.796;9.930;2024-01-30T13:34:12;4.22;;;2.05;;
36205;SDS011;22242;48.796;9.930;2024-01-30T13:36:39;2.88;;;1.60;;
36205;SDS011;22242;48.796;9.930;2024-01-30T13:39:08;3.47;;;1.85;;
36205;SDS011;22242;48.796;9.930;2024-01-30T13:41:35;2.10;;;1.73;;
36205;SDS011;22242;48.796;9.930;2024-01-30T13:44:02;2.97;;;2.00;;
36205;SDS011;22242;48.796;9.930;2024-01-30T13:46:29;1.60;;;1.40;;
36205;SDS011;22242;48.796;9.930;2024-01-30T13:48:57;5.05;;;3.17;;
36205;SDS011;22242;48.796;9.930;2024-01-30T13:51:24;5.05;;;2.00;;
36205;SDS011;22242;48.796;9.930;2024-01-30T13:53:50;4.70;;;2.38;;
36205;SDS011;22242;48.796;9.930;2024-01-30T13:56:19;10.70;;;4.00;;
36205;SDS011;22242;48.796;9.930;2024-01-30T13:58:46;5.40;;;2.83;;
36205;SDS011;22242;48.796;9.930;2024-01-30T14:01:14;3.35;;;2.40;;
36205;SDS011;22242;48.796;9.930;2024-01-30T14:03:40;3.10;;;2.20;;
36205;SDS011;22242;48.796;9.930;2024-01-30T14:06:07;4.90;;;2.22;;
36205;SDS011;22242;48.796;9.930;2024-01-30T14:08:34;5.18;;;2.17;;
36205;SDS011;22242;48.796;9.930;2024-01-30T14:11:01;5.60;;;2.67;;
36205;SDS011;22242;48.796;9.930;2024-01-30T14:13:29;5.63;;;2.78;;
36205;SDS011;22242;48.796;9.930;2024-01-30T14:15:57;5.85;;;3.25;;
36205;SDS011;22242;48.796;9.930;2024-01-30T14:18:24;7.40;;;2.85;;
36205;SDS011;22242;48.796;9.930;2024-01-30T14:20:51;4.10;;;2.70;;
36205;SDS011;22242;48.796;9.930;2024-01-30T14:23:19;4.75;;;2.60;;
36205;SDS011;22242;48.796;9.930;2024-01-30T14:25:46;3.80;;;2.60;;
36205;SDS011;22242;48.796;9.930;2024-01-30T14:28:13;5.15;;;2.25;;
36205;SDS011;22242;48.796;9.930;2024-01-30T14:30:51;6.50;;;2.80;;
36205;SDS011;22242;48.796;9.930;2024-01-30T14:33:18;5.07;;;2.35;;
36205;SDS011;22242;48.796;9.930;2024-01-30T14:35:44;4.97;;;2.47;;
36205;SDS011;22242;48.796;9.930;2024-01-30T14:38:11;4.07;;;2.55;;
36205;SDS011;22242;48.796;9.930;2024-01-30T14:40:38;4.38;;;2.85;;
36205;SDS011;22242;48.796;9.930;2024-01-30T14:43:05;3.13;;;2.30;;
36205;SDS011;22242;48.796;9.930;2024-01-30T14:45:32;6.07;;;3.25;;